sensor_id;sensor_type;location;lat;lon;timestamp;P1;durP1;ratioP1;P2;durP2;ratioP2
73104;SDS011;61296;50.526;30.792;2022-11-14T00:12:46;6.88;;;3.75;;
73104;SDS011;61296;50.526;30.792;2022-11-14T00:28:24;7.70;;;3.30;;
73104;SDS011;61296;50.526;30.792;2022-11-14T00:44:02;6.70;;;3.10;;
73104;SDS011;61296;50.526;30.792;2022-11-14T00:59:40;7.65;;;3.40;;
73104;SDS011;61296;50.526;30.792;2022-11-14T01:15:19;6.10;;;3.45;;
73104;SDS011;61296;50.526;30.792;2022-11-14T01:31:06;6.60;;;3.30;;
73104;SDS011;61296;50.526;30.792;2022-11-14T01:46:52;12.73;;;3.00;;
73104;SDS011;61296;50.526;30.792;2022-11-14T02:02:33;5.00;;;2.33;;
73104;SDS011;61296;50.526;30.792;2022-11-14T02:18:12;6.93;;;2.10;;
73104;SDS011;61296;50.526;30.792;2022-11-14T02:33:50;6.25;;;1.88;;
73104;SDS011;61296;50.526;30.792;2022-11-14T02:49:29;4.95;;;2.60;;
73104;SDS011;61296;50.526;30.792;2022-11-14T03:05:07;5.47;;;2.30;;
73104;SDS011;61296;50.526;30.792;2022-11-14T03:20:46;5.93;;;3.10;;
73104;SDS011;61296;50.526;30.792;2022-11-14T03:36:25;8.02;;;3.42;;
73104;SDS011;61296;50.526;30.792;2022-11-14T03:52:06;12.88;;;3.88;;
73104;SDS011;61296;50.526;30.792;2022-11-14T04:07:45;5.63;;;2.28;;
73104;SDS011;61296;50.526;30.792;2022-11-14T04:23:23;6.32;;;2.67;;
73104;SDS011;61296;50.526;30.792;2022-11-14T04:39:01;7.45;;;3.05;;
73104;SDS011;61296;50.526;30.792;2022-11-14T04:54:39;7.22;;;3.47;;
73104;SDS011;61296;50.526;30.792;2022-11-14T05:10:18;7.80;;;2.90;;
73104;SDS011;61296;50.526;30.792;2022-11-14T05:57:25;18.63;;;6.57;;
73104;SDS011;61296;50.526;30.792;2022-11-14T06:13:11;9.32;;;3.22;;
73104;SDS011;61296;50.526;30.792;2022-11-14T06:28:50;6.78;;;2.95;;
73104;SDS011;61296;50.526;30.792;2022-11-14T06:44:30;9.20;;;3.22;;
73104;SDS011;61296;50.526;30.792;2022-11-14T07:00:09;7.07;;;2.65;;
73104;SDS011;61296;50.526;30.792;2022-11-14T07:15:54;4.97;;;2.88;;
73104;SDS011;61296;50.526;30.792;2022-11-14T07:31:32;9.55;;;4.03;;
73104;SDS011;61296;50.526;30.792;2022-11-14T07:47:11;7.55;;;4.13;;
73104;SDS011;61296;50.526;30.792;2022-11-14T08:02:50;7.57;;;4.15;;
73104;SDS011;61296;50.526;30.792;2022-11-14T08:18:28;6.63;;;3.17;;
73104;SDS011;61296;50.526;30.792;2022-11-14T08:34:05;4.65;;;2.75;;
73104;SDS011;61296;50.526;30.792;2022-11-14T08:49:45;5.10;;;2.50;;
73104;SDS011;61296;50.526;30.792;2022-11-14T09:05:23;2.47;;;1.52;;
73104;SDS011;61296;50.526;30.792;2022-11-14T09:21:03;3.00;;;1.20;;
73104;SDS011;61296;50.526;30.792;2022-11-14T09:36:44;4.25;;;1.33;;
73104;SDS011;61296;50.526;30.792;2022-11-14T10:40:15;3.80;;;1.50;;
73104;SDS011;61296;50.526;30.792;2022-11-14T10:55:56;5.47;;;1.58;;
73104;SDS011;61296;50.526;30.792;2022-11-14T11:11:39;2.47;;;1.17;;
73104;SDS011;61296;50.526;30.792;2022-11-14T11:27:29;1.67;;;1.30;;
73104;SDS011;61296;50.526;30.792;2022-11-14T12:14:54;3.40;;;1.15;;
73104;SDS011;61296;50.526;30.792;2022-11-14T12:30:41;3.95;;;2.08;;
73104;SDS011;61296;50.526;30.792;2022-11-14T12:46:37;2.42;;;1.50;;
73104;SDS011;61296;50.526;30.792;2022-11-14T13:50:59;4.22;;;1.90;;
73104;SDS011;61296;50.526;30.792;2022-11-14T14:22:38;6.97;;;3.60;;
73104;SDS011;61296;50.526;30.792;2022-11-14T14:38:24;6.95;;;3.20;;
73104;SDS011;61296;50.526;30.792;2022-11-14T14:54:04;9.25;;;4.80;;
73104;SDS011;61296;50.526;30.792;2022-11-14T15:09:54;12.30;;;6.10;;
73104;SDS011;61296;50.526;30.792;2022-11-14T15:25:36;12.48;;;7.22;;
73104;SDS011;61296;50.526;30.792;2022-11-14T15:41:19;17.30;;;8.13;;
73104;SDS011;61296;50.526;30.792;2022-11-14T15:57:04;11.60;;;6.65;;
73104;SDS011;61296;50.526;30.792;2022-11-14T16:12:49;12.65;;;6.95;;
73104;SDS011;61296;50.526;30.792;2022-11-14T16:28:27;12.95;;;6.38;;
73104;SDS011;61296;50.526;30.792;2022-11-14T16:44:07;15.80;;;7.57;;
73104;SDS011;61296;50.526;30.792;2022-11-14T16:59:51;19.85;;;8.80;;
73104;SDS011;61296;50.526;30.792;2022-11-14T17:15:30;17.92;;;7.90;;
73104;SDS011;61296;50.526;30.792;2022-11-14T17:31:08;65.65;;;25.13;;
73104;SDS011;61296;50.526;30.792;2022-11-14T17:46:47;124.50;;;13.90;;
73104;SDS011;61296;50.526;30.792;2022-11-14T18:02:26;22.23;;;10.05;;
73104;SDS011;61296;50.526;30.792;2022-11-14T18:18:04;18.17;;;8.15;;
73104;SDS011;61296;50.526;30.792;2022-11-14T18:33:43;16.77;;;8.13;;
73104;SDS011;61296;50.526;30.792;2022-11-14T18:49:21;15.98;;;9.38;;
73104;SDS011;61296;50.526;30.792;2022-11-14T19:05:00;16.25;;;8.27;;
73104;SDS011;61296;50.526;30.792;2022-11-14T19:20:39;21.52;;;9.40;;
73104;SDS011;61296;50.526;30.792;2022-11-14T19:36:19;20.90;;;10.00;;
73104;SDS011;61296;50.526;30.792;2022-11-14T19:52:00;11.77;;;5.65;;
73104;SDS011;61296;50.526;30.792;2022-11-14T20:07:39;15.38;;;7.00;;
73104;SDS011;61296;50.526;30.792;2022-11-14T20:23:17;16.08;;;7.75;;
73104;SDS011;61296;50.526;30.792;2022-11-14T20:38:56;12.82;;;6.05;;
73104;SDS011;61296;50.526;30.792;2022-11-14T20:54:36;10.25;;;5.68;;
73104;SDS011;61296;50.526;30.792;2022-11-14T21:10:15;12.95;;;6.57;;
73104;SDS011;61296;50.526;30.792;2022-11-14T21:26:13;13.10;;;7.10;;
73104;SDS011;61296;50.526;30.792;2022-11-14T21:41:52;11.93;;;6.28;;
73104;SDS011;61296;50.526;30.792;2022-11-14T21:57:30;13.57;;;7.40;;
73104;SDS011;61296;50.526;30.792;2022-11-14T22:13:09;11.30;;;6.50;;
73104;SDS011;61296;50.526;30.792;2022-11-14T22:28:48;13.10;;;7.10;;
73104;SDS011;61296;50.526;30.792;2022-11-14T22:44:27;22.25;;;8.65;;
73104;SDS011;61296;50.526;30.792;2022-11-14T23:00:10;23.17;;;8.95;;
73104;SDS011;61296;50.526;30.792;2022-11-14T23:15:48;24.08;;;9.07;;
73104;SDS011;61296;50.526;30.792;2022-11-14T23:31:28;13.38;;;7.10;;
73104;SDS011;61296;50.526;30.792;2022-11-14T23:47:06;15.40;;;7.60;;
